sensor_id;sensor_type;location;lat;lon;timestamp;pressure;altitude;pressure_sealevel;temperature;humidity
75290;BME280;63883;48.996;20.804;2023-04-16T00:02:20;96279.44;;;4.35;100.00
75290;BME280;63883;48.996;20.804;2023-04-16T00:04:46;96282.00;;;4.32;100.00
75290;BME280;63883;48.996;20.804;2023-04-16T00:07:12;96292.91;;;4.34;100.00
75290;BME280;63883;48.996;20.804;2023-04-16T00:09:37;96293.75;;;4.33;100.00
75290;BME280;63883;48.996;20.804;2023-04-16T00:12:03;96285.31;;;4.37;100.00
75290;BME280;63883;48.996;20.804;2023-04-16T00:14:30;96295.38;;;4.40;100.00
75290;BME280;63883;48.996;20.804;2023-04-16T00:16:56;96292.00;;;4.41;100.00
75290;BME280;63883;48.996;20.804;2023-04-16T00:19:22;96292.00;;;4.41;100.00
75290;BME280;63883;48.996;20.804;2023-04-16T00:21:47;96298.72;;;4.42;100.00
75290;BME280;63883;48.996;20.804;2023-04-16T00:24:13;96293.69;;;4.42;99.66
75290;BME280;63883;48.996;20.804;2023-04-16T00:26:39;96292.88;;;4.39;99.51
75290;BME280;63883;48.996;20.804;2023-04-16T00:29:05;96290.38;;;4.37;99.43
75290;BME280;63883;48.996;20.804;2023-04-16T00:31:32;96295.47;;;4.26;100.00
75290;BME280;63883;48.996;20.804;2023-04-16T00:33:58;96298.94;;;4.15;100.00
75290;BME280;63883;48.996;20.804;2023-04-16T00:36:25;96302.38;;;4.05;100.00
75290;BME280;63883;48.996;20.804;2023-04-16T00:38:55;96306.63;;;3.97;100.00
75290;BME280;63883;48.996;20.804;2023-04-16T00:41:21;96317.59;;;3.94;100.00
75290;BME280;63883;48.996;20.804;2023-04-16T00:43:48;96310.88;;;3.90;100.00
75290;BME280;63883;48.996;20.804;2023-04-16T00:46:15;96309.22;;;3.89;100.00
75290;BME280;63883;48.996;20.804;2023-04-16T00:48:42;96313.38;;;3.93;100.00
75290;BME280;63883;48.996;20.804;2023-04-16T00:51:08;96310.84;;;3.91;100.00
75290;BME280;63883;48.996;20.804;2023-04-16T00:53:34;96304.97;;;3.96;100.00
75290;BME280;63883;48.996;20.804;2023-04-16T00:56:04;96305.81;;;3.96;100.00
75290;BME280;63883;48.996;20.804;2023-04-16T00:58:34;96304.16;;;3.89;100.00
75290;BME280;63883;48.996;20.804;2023-04-16T01:01:00;96305.84;;;3.85;100.00
75290;BME280;63883;48.996;20.804;2023-04-16T01:03:37;96313.41;;;3.88;100.00
75290;BME280;63883;48.996;20.804;2023-04-16T01:06:04;96314.28;;;3.83;100.00
75290;BME280;63883;48.996;20.804;2023-04-16T01:08:30;96313.47;;;3.79;100.00
75290;BME280;63883;48.996;20.804;2023-04-16T01:10:56;96319.34;;;3.78;100.00
75290;BME280;63883;48.996;20.804;2023-04-16T01:13:22;96324.41;;;3.75;100.00
75290;BME280;63883;48.996;20.804;2023-04-16T01:15:47;96327.75;;;3.76;100.00
75290;BME280;63883;48.996;20.804;2023-04-16T01:20:40;96324.41;;;3.77;100.00
75290;BME280;63883;48.996;20.804;2023-04-16T01:23:06;96319.38;;;3.74;100.00
75290;BME280;63883;48.996;20.804;2023-04-16T01:25:31;96319.38;;;3.71;100.00
75290;BME280;63883;48.996;20.804;2023-04-16T01:27:57;96316.88;;;3.72;100.00
75290;BME280;63883;48.996;20.804;2023-04-16T01:30:24;96324.41;;;3.75;100.00
75290;BME280;63883;48.996;20.804;2023-04-16T01:32:49;96320.22;;;3.73;100.00
75290;BME280;63883;48.996;20.804;2023-04-16T01:35:15;96328.63;;;3.72;100.00
75290;BME280;63883;48.996;20.804;2023-04-16T01:37:43;96319.38;;;3.71;100.00
75290;BME280;63883;48.996;20.804;2023-04-16T01:40:09;96316.03;;;3.72;100.00
75290;BME280;63883;48.996;20.804;2023-04-16T01:42:35;96321.06;;;3.73;100.00
75290;BME280;63883;48.996;20.804;2023-04-16T01:45:00;96327.72;;;3.83;100.00
75290;BME280;63883;48.996;20.804;2023-04-16T01:47:26;96326.88;;;3.87;100.00
75290;BME280;63883;48.996;20.804;2023-04-16T01:49:52;96326.03;;;3.85;100.00
75290;BME280;63883;48.996;20.804;2023-04-16T01:52:18;96328.56;;;3.84;100.00
75290;BME280;63883;48.996;20.804;2023-04-16T01:54:44;96337.81;;;3.83;100.00
75290;BME280;63883;48.996;20.804;2023-04-16T01:57:09;96334.47;;;3.78;100.00
75290;BME280;63883;48.996;20.804;2023-04-16T01:59:35;96337.84;;;3.79;100.00
75290;BME280;63883;48.996;20.804;2023-04-16T02:02:10;96342.88;;;3.79;100.00
75290;BME280;63883;48.996;20.804;2023-04-16T02:04:38;96337.84;;;3.80;100.00
75290;BME280;63883;48.996;20.804;2023-04-16T02:07:04;96337.88;;;3.74;100.00
75290;BME280;63883;48.996;20.804;2023-04-16T02:09:30;96337.91;;;3.67;100.00
75290;BME280;63883;48.996;20.804;2023-04-16T02:11:58;96346.31;;;3.64;100.00
75290;BME280;63883;48.996;20.804;2023-04-16T02:14:24;96349.69;;;3.63;100.00
75290;BME280;63883;48.996;20.804;2023-04-16T02:16:50;96334.56;;;3.60;100.00
75290;BME280;63883;48.996;20.804;2023-04-16T02:19:16;96333.72;;;3.66;100.00
75290;BME280;63883;48.996;20.804;2023-04-16T02:21:42;96338.75;;;3.66;100.00
75290;BME280;63883;48.996;20.804;2023-04-16T02:24:08;96342.91;;;3.71;100.00
75290;BME280;63883;48.996;20.804;2023-04-16T02:26:35;96342.94;;;3.65;100.00
75290;BME280;63883;48.996;20.804;2023-04-16T02:29:00;96340.44;;;3.64;100.00
75290;BME280;63883;48.996;20.804;2023-04-16T02:31:26;96351.34;;;3.67;100.00
75290;BME280;63883;48.996;20.804;2023-04-16T02:33:53;96344.66;;;3.54;100.00
75290;BME280;63883;48.996;20.804;2023-04-16T02:36:19;96354.78;;;3.48;100.00
75290;BME280;63883;48.996;20.804;2023-04-16T02:38:45;96352.28;;;3.42;100.00
75290;BME280;63883;48.996;20.804;2023-04-16T02:41:11;96358.19;;;3.38;100.00
75290;BME280;63883;48.996;20.804;2023-04-16T02:43:37;96356.53;;;3.31;100.00
75290;BME280;63883;48.996;20.804;2023-04-16T02:46:03;96359.06;;;3.23;100.00
75290;BME280;63883;48.996;20.804;2023-04-16T02:48:28;96360.75;;;3.13;100.00
75290;BME280;63883;48.996;20.804;2023-04-16T02:50:54;96370.84;;;3.04;100.00
75290;BME280;63883;48.996;20.804;2023-04-16T02:53:20;96359.97;;;2.95;100.00
75290;BME280;63883;48.996;20.804;2023-04-16T02:55:53;96371.72;;;2.93;100.00
75290;BME280;63883;48.996;20.804;2023-04-16T02:58:20;96378.44;;;2.88;100.00
75290;BME280;63883;48.996;20.804;2023-04-16T03:00:46;96380.09;;;2.84;100.00
75290;BME280;63883;48.996;20.804;2023-04-16T03:03:12;96390.16;;;2.81;100.00
75290;BME280;63883;48.996;20.804;2023-04-16T03:05:38;96389.34;;;2.81;100.00
75290;BME280;63883;48.996;20.804;2023-04-16T03:08:04;96389.34;;;2.84;100.00
75290;BME280;63883;48.996;20.804;2023-04-16T03:10:30;96397.72;;;2.84;100.00
75290;BME280;63883;48.996;20.804;2023-04-16T03:12:56;96404.44;;;2.91;100.00
75290;BME280;63883;48.996;20.804;2023-04-16T03:15:22;96398.56;;;2.97;100.00
75290;BME280;63883;48.996;20.804;2023-04-16T03:17:48;96400.22;;;3.14;100.00
75290;BME280;63883;48.996;20.804;2023-04-16T03:20:14;96398.53;;;3.10;100.00
75290;BME280;63883;48.996;20.804;2023-04-16T03:22:41;96395.22;;;3.08;100.00
75290;BME280;63883;48.996;20.804;2023-04-16T03:25:08;96409.47;;;3.08;100.00
75290;BME280;63883;48.996;20.804;2023-04-16T03:27:33;96396.03;;;3.12;100.00
75290;BME280;63883;48.996;20.804;2023-04-16T03:30:00;96404.44;;;3.14;100.00
75290;BME280;63883;48.996;20.804;2023-04-16T03:32:26;96410.31;;;3.14;100.00
75290;BME280;63883;48.996;20.804;2023-04-16T03:34:52;96415.34;;;3.11;100.00
75290;BME280;63883;48.996;20.804;2023-04-16T03:37:17;96422.91;;;3.11;100.00
75290;BME280;63883;48.996;20.804;2023-04-16T03:39:43;96422.06;;;3.06;100.00
75290;BME280;63883;48.996;20.804;2023-04-16T03:42:08;96426.25;;;3.04;100.00
75290;BME280;63883;48.996;20.804;2023-04-16T03:44:34;96420.41;;;3.08;100.00
75290;BME280;63883;48.996;20.804;2023-04-16T03:47:00;96421.22;;;3.06;100.00
75290;BME280;63883;48.996;20.804;2023-04-16T03:49:26;96431.31;;;3.04;100.00
75290;BME280;63883;48.996;20.804;2023-04-16T03:51:51;96421.22;;;2.98;100.00
75290;BME280;63883;48.996;20.804;2023-04-16T03:54:17;96433.81;;;2.97;100.00
75290;BME280;63883;48.996;20.804;2023-04-16T03:56:43;96429.63;;;2.96;100.00
75290;BME280;63883;48.996;20.804;2023-04-16T03:59:09;96433.84;;;3.01;100.00
75290;BME280;63883;48.996;20.804;2023-04-16T04:01:34;96427.94;;;2.99;100.00
75290;BME280;63883;48.996;20.804;2023-04-16T04:04:00;96434.66;;;2.96;100.00
75290;BME280;63883;48.996;20.804;2023-04-16T04:06:26;96437.19;;;3.03;100.00
75290;BME280;63883;48.996;20.804;2023-04-16T04:08:52;96438.88;;;3.07;100.00
75290;BME280;63883;48.996;20.804;2023-04-16T04:11:18;96445.56;;;3.05;100.00
75290;BME280;63883;48.996;20.804;2023-04-16T04:13:44;96448.13;;;3.01;100.00
75290;BME280;63883;48.996;20.804;2023-04-16T04:16:10;96454.00;;;2.95;100.00
75290;BME280;63883;48.996;20.804;2023-04-16T04:18:36;96456.50;;;2.88;100.00
75290;BME280;63883;48.996;20.804;2023-04-16T04:21:05;96464.03;;;2.89;100.00
75290;BME280;63883;48.996;20.804;2023-04-16T04:23:31;96456.50;;;2.77;100.00
75290;BME280;63883;48.996;20.804;2023-04-16T04:25:57;96462.38;;;2.85;100.00
75290;BME280;63883;48.996;20.804;2023-04-16T04:28:23;96470.78;;;2.87;100.00
75290;BME280;63883;48.996;20.804;2023-04-16T04:30:48;96479.16;;;2.83;100.00
75290;BME280;63883;48.996;20.804;2023-04-16T04:33:14;96475.78;;;2.75;100.00
75290;BME280;63883;48.996;20.804;2023-04-16T04:35:40;96477.47;;;2.79;100.00
75290;BME280;63883;48.996;20.804;2023-04-16T04:38:05;96479.16;;;2.86;100.00
75290;BME280;63883;48.996;20.804;2023-04-16T04:40:31;96479.16;;;2.97;100.00
75290;BME280;63883;48.996;20.804;2023-04-16T04:42:57;96485.91;;;2.95;100.00
75290;BME280;63883;48.996;20.804;2023-04-16T04:45:23;96481.69;;;2.97;100.00
75290;BME280;63883;48.996;20.804;2023-04-16T04:47:53;96487.53;;;2.88;100.00
75290;BME280;63883;48.996;20.804;2023-04-16T04:50:18;96485.88;;;2.84;100.00
75290;BME280;63883;48.996;20.804;2023-04-16T04:52:44;96490.06;;;2.91;100.00
75290;BME280;63883;48.996;20.804;2023-04-16T04:55:10;96491.78;;;3.01;100.00
75290;BME280;63883;48.996;20.804;2023-04-16T04:57:36;96490.91;;;3.04;100.00
75290;BME280;63883;48.996;20.804;2023-04-16T05:00:02;96501.00;;;3.13;100.00
75290;BME280;63883;48.996;20.804;2023-04-16T05:02:28;96502.69;;;3.22;100.00
75290;BME280;63883;48.996;20.804;2023-04-16T05:04:54;96501.84;;;3.30;100.00
75290;BME280;63883;48.996;20.804;2023-04-16T05:07:20;96501.84;;;3.32;100.00
75290;BME280;63883;48.996;20.804;2023-04-16T05:09:46;96501.84;;;3.30;100.00
75290;BME280;63883;48.996;20.804;2023-04-16T05:12:12;96505.22;;;3.31;100.00
75290;BME280;63883;48.996;20.804;2023-04-16T05:14:37;96512.78;;;3.37;100.00
75290;BME280;63883;48.996;20.804;2023-04-16T05:17:03;96512.75;;;3.41;99.33
75290;BME280;63883;48.996;20.804;2023-04-16T05:19:29;96515.25;;;3.53;98.91
75290;BME280;63883;48.996;20.804;2023-04-16T05:21:55;96513.59;;;3.57;98.68
75290;BME280;63883;48.996;20.804;2023-04-16T05:24:21;96519.47;;;3.71;98.16
75290;BME280;63883;48.996;20.804;2023-04-16T05:26:46;96512.69;;;3.85;98.07
75290;BME280;63883;48.996;20.804;2023-04-16T05:29:12;96510.16;;;3.95;97.84
75290;BME280;63883;48.996;20.804;2023-04-16T05:31:38;96518.53;;;4.07;96.51
75290;BME280;63883;48.996;20.804;2023-04-16T05:34:03;96520.22;;;4.07;96.98
75290;BME280;63883;48.996;20.804;2023-04-16T05:36:29;96516.00;;;4.10;97.58
75290;BME280;63883;48.996;20.804;2023-04-16T05:38:55;96512.63;;;4.08;97.31
75290;BME280;63883;48.996;20.804;2023-04-16T05:41:21;96514.34;;;3.99;97.45
75290;BME280;63883;48.996;20.804;2023-04-16T05:43:46;96516.88;;;4.02;97.65
75290;BME280;63883;48.996;20.804;2023-04-16T05:46:12;96516.00;;;4.06;97.73
75290;BME280;63883;48.996;20.804;2023-04-16T05:48:38;96526.91;;;4.20;97.97
75290;BME280;63883;48.996;20.804;2023-04-16T05:51:04;96531.06;;;4.27;96.91
75290;BME280;63883;48.996;20.804;2023-04-16T05:53:29;96527.72;;;4.31;96.51
75290;BME280;63883;48.996;20.804;2023-04-16T05:55:55;96531.06;;;4.30;95.65
75290;BME280;63883;48.996;20.804;2023-04-16T05:58:21;96529.41;;;4.29;95.03
75290;BME280;63883;48.996;20.804;2023-04-16T06:00:47;96536.97;;;4.30;94.61
75290;BME280;63883;48.996;20.804;2023-04-16T06:03:12;96539.50;;;4.21;94.33
75290;BME280;63883;48.996;20.804;2023-04-16T06:05:38;96535.34;;;4.08;94.51
75290;BME280;63883;48.996;20.804;2023-04-16T06:08:04;96539.53;;;4.17;95.53
75290;BME280;63883;48.996;20.804;2023-04-16T06:10:29;96541.19;;;4.24;94.39
75290;BME280;63883;48.996;20.804;2023-04-16T06:12:55;96539.56;;;4.08;93.15
75290;BME280;63883;48.996;20.804;2023-04-16T06:15:21;96542.06;;;4.11;94.26
75290;BME280;63883;48.996;20.804;2023-04-16T06:20:13;96542.00;;;4.35;93.99
75290;BME280;63883;48.996;20.804;2023-04-16T06:22:38;96545.28;;;4.51;93.85
75290;BME280;63883;48.996;20.804;2023-04-16T06:25:05;96541.88;;;4.62;93.14
75290;BME280;63883;48.996;20.804;2023-04-16T06:27:30;96542.59;;;4.86;93.12
75290;BME280;63883;48.996;20.804;2023-04-16T06:29:56;96545.00;;;5.05;92.14
75290;BME280;63883;48.996;20.804;2023-04-16T06:32:22;96547.50;;;5.10;90.33
75290;BME280;63883;48.996;20.804;2023-04-16T06:34:48;96542.31;;;5.30;90.63
75290;BME280;63883;48.996;20.804;2023-04-16T06:37:14;96543.03;;;5.44;89.64
75290;BME280;63883;48.996;20.804;2023-04-16T06:39:40;96537.19;;;5.34;89.62
75290;BME280;63883;48.996;20.804;2023-04-16T06:42:06;96539.59;;;5.53;89.59
75290;BME280;63883;48.996;20.804;2023-04-16T06:44:32;96537.91;;;5.55;89.27
75290;BME280;63883;48.996;20.804;2023-04-16T06:46:58;96539.56;;;5.57;89.81
75290;BME280;63883;48.996;20.804;2023-04-16T06:49:23;96539.44;;;5.71;89.19
75290;BME280;63883;48.996;20.804;2023-04-16T06:51:49;96525.75;;;5.95;87.47
75290;BME280;63883;48.996;20.804;2023-04-16T06:54:15;96534.09;;;6.04;88.38
75290;BME280;63883;48.996;20.804;2023-04-16T06:56:41;96538.22;;;6.11;87.55
75290;BME280;63883;48.996;20.804;2023-04-16T06:59:06;96539.03;;;6.13;87.35
75290;BME280;63883;48.996;20.804;2023-04-16T07:01:32;96536.47;;;6.16;86.29
75290;BME280;63883;48.996;20.804;2023-04-16T07:03:58;96535.66;;;6.14;85.95
75290;BME280;63883;48.996;20.804;2023-04-16T07:06:24;96535.78;;;6.02;85.59
75290;BME280;63883;48.996;20.804;2023-04-16T07:08:51;96535.88;;;5.95;87.83
75290;BME280;63883;48.996;20.804;2023-04-16T07:11:17;96535.81;;;6.01;87.14
75290;BME280;63883;48.996;20.804;2023-04-16T07:13:43;96541.72;;;6.00;86.79
75290;BME280;63883;48.996;20.804;2023-04-16T07:16:09;96539.16;;;6.04;86.72
75290;BME280;63883;48.996;20.804;2023-04-16T07:18:35;96546.69;;;6.09;87.21
75290;BME280;63883;48.996;20.804;2023-04-16T07:21:00;96544.94;;;6.15;86.90
75290;BME280;63883;48.996;20.804;2023-04-16T07:23:26;96548.28;;;6.17;88.28
75290;BME280;63883;48.996;20.804;2023-04-16T07:25:52;96551.53;;;6.27;87.70
75290;BME280;63883;48.996;20.804;2023-04-16T07:28:18;96557.25;;;6.46;86.91
75290;BME280;63883;48.996;20.804;2023-04-16T07:30:44;96553.66;;;6.63;87.22
75290;BME280;63883;48.996;20.804;2023-04-16T07:33:10;96553.47;;;6.77;85.16
75290;BME280;63883;48.996;20.804;2023-04-16T07:35:36;96558.63;;;6.71;84.99
75290;BME280;63883;48.996;20.804;2023-04-16T07:38:02;96558.50;;;6.83;86.13
75290;BME280;63883;48.996;20.804;2023-04-16T07:40:27;96557.75;;;6.75;85.28
75290;BME280;63883;48.996;20.804;2023-04-16T07:42:53;96565.25;;;6.83;85.65
75290;BME280;63883;48.996;20.804;2023-04-16T07:45:19;96564.31;;;6.91;84.31
75290;BME280;63883;48.996;20.804;2023-04-16T07:47:45;96555.66;;;7.04;84.76
75290;BME280;63883;48.996;20.804;2023-04-16T07:50:11;96561.28;;;7.26;83.99
75290;BME280;63883;48.996;20.804;2023-04-16T07:52:37;96555.44;;;7.20;83.40
75290;BME280;63883;48.996;20.804;2023-04-16T07:55:06;96571.44;;;7.23;83.41
75290;BME280;63883;48.996;20.804;2023-04-16T07:57:32;96565.31;;;7.38;84.62
75290;BME280;63883;48.996;20.804;2023-04-16T07:59:57;96558.41;;;7.48;84.51
75290;BME280;63883;48.996;20.804;2023-04-16T08:02:23;96567.25;;;7.76;82.45
75290;BME280;63883;48.996;20.804;2023-04-16T08:04:49;96570.28;;;7.98;80.61
75290;BME280;63883;48.996;20.804;2023-04-16T08:07:15;96561.53;;;8.12;81.46
75290;BME280;63883;48.996;20.804;2023-04-16T08:09:48;96561.53;;;8.14;79.78
75290;BME280;63883;48.996;20.804;2023-04-16T08:12:14;96568.09;;;8.24;80.25
75290;BME280;63883;48.996;20.804;2023-04-16T08:14:41;96575.28;;;8.50;79.76
75290;BME280;63883;48.996;20.804;2023-04-16T08:17:07;96579.41;;;8.55;78.70
75290;BME280;63883;48.996;20.804;2023-04-16T08:19:32;96578.22;;;8.72;79.48
75290;BME280;63883;48.996;20.804;2023-04-16T08:21:58;96572.06;;;8.83;77.65
75290;BME280;63883;48.996;20.804;2023-04-16T08:24:24;96578.22;;;8.72;78.22
75290;BME280;63883;48.996;20.804;2023-04-16T08:26:50;96574.72;;;8.79;78.50
75290;BME280;63883;48.996;20.804;2023-04-16T08:29:16;96570.28;;;8.87;77.78
75290;BME280;63883;48.996;20.804;2023-04-16T08:31:42;96573.03;;;8.78;78.65
75290;BME280;63883;48.996;20.804;2023-04-16T08:34:08;96562.25;;;9.07;78.72
75290;BME280;63883;48.996;20.804;2023-04-16T08:36:35;96573.16;;;9.49;75.83
75290;BME280;63883;48.996;20.804;2023-04-16T08:39:01;96567.56;;;9.70;76.28
75290;BME280;63883;48.996;20.804;2023-04-16T08:41:30;96575.41;;;9.96;75.56
75290;BME280;63883;48.996;20.804;2023-04-16T08:43:59;96568.75;;;9.91;75.99
75290;BME280;63883;48.996;20.804;2023-04-16T08:46:25;96572.59;;;10.07;75.15
75290;BME280;63883;48.996;20.804;2023-04-16T08:48:53;96568.47;;;10.35;74.30
75290;BME280;63883;48.996;20.804;2023-04-16T08:51:21;96576.47;;;10.54;73.83
75290;BME280;63883;48.996;20.804;2023-04-16T08:53:51;96574.56;;;10.91;73.59
75290;BME280;63883;48.996;20.804;2023-04-16T08:56:22;96577.81;;;10.96;72.06
75290;BME280;63883;48.996;20.804;2023-04-16T08:58:49;96579.13;;;11.10;70.81
75290;BME280;63883;48.996;20.804;2023-04-16T09:01:17;96577.53;;;11.06;70.33
75290;BME280;63883;48.996;20.804;2023-04-16T09:03:47;96577.16;;;10.90;72.79
75290;BME280;63883;48.996;20.804;2023-04-16T09:06:14;96575.53;;;10.87;71.55
75290;BME280;63883;48.996;20.804;2023-04-16T09:08:44;96569.47;;;10.91;73.91
75290;BME280;63883;48.996;20.804;2023-04-16T09:11:16;96565.81;;;11.00;74.43
75290;BME280;63883;48.996;20.804;2023-04-16T09:13:42;96566.81;;;11.52;75.68
75290;BME280;63883;48.996;20.804;2023-04-16T09:16:08;96570.69;;;12.16;71.62
75290;BME280;63883;48.996;20.804;2023-04-16T09:18:35;96563.69;;;12.46;68.43
75290;BME280;63883;48.996;20.804;2023-04-16T09:21:01;96572.34;;;13.13;66.18
75290;BME280;63883;48.996;20.804;2023-04-16T09:23:28;96571.66;;;13.75;62.89
75290;BME280;63883;48.996;20.804;2023-04-16T09:25:55;96564.13;;;14.13;59.89
75290;BME280;63883;48.996;20.804;2023-04-16T09:28:47;96571.53;;;14.61;58.63
75290;BME280;63883;48.996;20.804;2023-04-16T09:31:17;96561.69;;;14.89;57.22
75290;BME280;63883;48.996;20.804;2023-04-16T09:33:59;96554.13;;;14.86;57.00
75290;BME280;63883;48.996;20.804;2023-04-16T09:36:25;96556.06;;;15.00;59.18
75290;BME280;63883;48.996;20.804;2023-04-16T09:38:53;96558.91;;;14.94;58.73
75290;BME280;63883;48.996;20.804;2023-04-16T09:41:23;96547.03;;;15.29;60.28
75290;BME280;63883;48.996;20.804;2023-04-16T09:43:54;96550.59;;;15.07;57.04
75290;BME280;63883;48.996;20.804;2023-04-16T09:46:21;96548.03;;;15.26;56.79
75290;BME280;63883;48.996;20.804;2023-04-16T09:48:46;96549.81;;;15.24;54.78
75290;BME280;63883;48.996;20.804;2023-04-16T09:51:12;96551.00;;;15.17;55.70
75290;BME280;63883;48.996;20.804;2023-04-16T09:53:38;96546.88;;;15.50;53.12
75290;BME280;63883;48.996;20.804;2023-04-16T09:56:05;96546.28;;;16.16;55.66
75290;BME280;63883;48.996;20.804;2023-04-16T09:58:31;96541.63;;;16.57;53.43
75290;BME280;63883;48.996;20.804;2023-04-16T10:03:32;96533.78;;;17.85;48.78
75290;BME280;63883;48.996;20.804;2023-04-16T10:06:14;96538.72;;;17.74;48.38
75290;BME280;63883;48.996;20.804;2023-04-16T10:08:45;96536.22;;;18.03;51.06
75290;BME280;63883;48.996;20.804;2023-04-16T10:11:11;96537.28;;;18.87;48.30
75290;BME280;63883;48.996;20.804;2023-04-16T10:13:37;96529.16;;;19.34;48.13
75290;BME280;63883;48.996;20.804;2023-04-16T10:16:03;96522.56;;;19.57;43.69
75290;BME280;63883;48.996;20.804;2023-04-16T10:18:29;96526.13;;;19.27;42.66
75290;BME280;63883;48.996;20.804;2023-04-16T10:20:56;96518.28;;;19.29;42.67
75290;BME280;63883;48.996;20.804;2023-04-16T10:23:22;96525.13;;;19.30;44.21
75290;BME280;63883;48.996;20.804;2023-04-16T10:25:48;96515.66;;;19.43;44.57
75290;BME280;63883;48.996;20.804;2023-04-16T10:28:15;96522.81;;;19.66;45.09
75290;BME280;63883;48.996;20.804;2023-04-16T10:30:44;96516.00;;;19.78;41.51
75290;BME280;63883;48.996;20.804;2023-04-16T10:33:19;96521.25;;;19.64;43.21
75290;BME280;63883;48.996;20.804;2023-04-16T10:35:45;96515.88;;;19.26;42.95
75290;BME280;63883;48.996;20.804;2023-04-16T10:38:24;96522.50;;;18.89;41.66
75290;BME280;63883;48.996;20.804;2023-04-16T10:41:06;96517.44;;;19.01;41.01
75290;BME280;63883;48.996;20.804;2023-04-16T10:43:39;96513.47;;;18.67;40.66
75290;BME280;63883;48.996;20.804;2023-04-16T10:46:25;96518.63;;;18.82;39.98
75290;BME280;63883;48.996;20.804;2023-04-16T10:48:54;96517.06;;;18.93;38.88
75290;BME280;63883;48.996;20.804;2023-04-16T10:56:43;96505.09;;;19.19;37.04
75290;BME280;63883;48.996;20.804;2023-04-16T10:59:10;96502.63;;;19.44;39.76
75290;BME280;63883;48.996;20.804;2023-04-16T11:01:40;96507.78;;;19.59;38.05
75290;BME280;63883;48.996;20.804;2023-04-16T11:04:32;96507.16;;;19.68;36.31
75290;BME280;63883;48.996;20.804;2023-04-16T11:07:20;96503.56;;;19.70;35.82
75290;BME280;63883;48.996;20.804;2023-04-16T11:09:56;96499.72;;;20.28;35.04
75290;BME280;63883;48.996;20.804;2023-04-16T11:12:25;96504.59;;;20.33;32.43
75290;BME280;63883;48.996;20.804;2023-04-16T11:15:01;96501.31;;;20.43;34.12
75290;BME280;63883;48.996;20.804;2023-04-16T11:17:30;96496.66;;;20.48;32.95
75290;BME280;63883;48.996;20.804;2023-04-16T11:19:56;96490.44;;;20.38;33.19
75290;BME280;63883;48.996;20.804;2023-04-16T11:22:23;96484.31;;;20.52;32.27
75290;BME280;63883;48.996;20.804;2023-04-16T11:24:53;96488.97;;;20.47;32.51
75290;BME280;63883;48.996;20.804;2023-04-16T11:27:19;96487.72;;;20.65;33.71
75290;BME280;63883;48.996;20.804;2023-04-16T11:29:45;96486.91;;;20.64;33.76
75290;BME280;63883;48.996;20.804;2023-04-16T11:32:21;96491.53;;;20.21;35.92
75290;BME280;63883;48.996;20.804;2023-04-16T11:34:47;96478.22;;;20.89;34.64
75290;BME280;63883;48.996;20.804;2023-04-16T11:37:12;96482.97;;;21.45;35.00
75290;BME280;63883;48.996;20.804;2023-04-16T11:39:49;96479.13;;;21.61;32.67
75290;BME280;63883;48.996;20.804;2023-04-16T11:42:20;96482.06;;;21.80;32.26
75290;BME280;63883;48.996;20.804;2023-04-16T11:44:53;96476.22;;;21.18;34.09
75290;BME280;63883;48.996;20.804;2023-04-16T11:47:21;96489.28;;;20.17;34.97
75290;BME280;63883;48.996;20.804;2023-04-16T11:49:47;96489.97;;;20.32;33.98
75290;BME280;63883;48.996;20.804;2023-04-16T11:52:23;96486.78;;;20.28;33.97
75290;BME280;63883;48.996;20.804;2023-04-16T11:54:49;96478.28;;;20.64;33.00
75290;BME280;63883;48.996;20.804;2023-04-16T11:57:23;96475.13;;;20.84;32.43
75290;BME280;63883;48.996;20.804;2023-04-16T11:59:48;96475.28;;;20.70;33.33
75290;BME280;63883;48.996;20.804;2023-04-16T12:02:14;96472.81;;;20.43;32.70
75290;BME280;63883;48.996;20.804;2023-04-16T12:04:40;96470.13;;;20.45;33.87
75290;BME280;63883;48.996;20.804;2023-04-16T12:07:10;96473.50;;;20.33;32.91
75290;BME280;63883;48.996;20.804;2023-04-16T12:09:38;96468.03;;;20.50;33.68
75290;BME280;63883;48.996;20.804;2023-04-16T12:12:04;96467.44;;;20.95;30.41
75290;BME280;63883;48.996;20.804;2023-04-16T12:14:31;96471.13;;;20.80;31.72
75290;BME280;63883;48.996;20.804;2023-04-16T12:17:18;96470.19;;;20.69;31.55
75290;BME280;63883;48.996;20.804;2023-04-16T12:20:12;96461.72;;;21.03;30.52
75290;BME280;63883;48.996;20.804;2023-04-16T12:22:43;96460.66;;;21.18;31.46
75290;BME280;63883;48.996;20.804;2023-04-16T12:25:11;96464.63;;;21.35;29.70
75290;BME280;63883;48.996;20.804;2023-04-16T12:27:47;96456.03;;;21.69;29.56
75290;BME280;63883;48.996;20.804;2023-04-16T12:30:15;96456.00;;;22.39;28.12
75290;BME280;63883;48.996;20.804;2023-04-16T12:32:42;96447.50;;;23.04;27.93
75290;BME280;63883;48.996;20.804;2023-04-16T12:35:09;96447.78;;;23.65;29.05
75290;BME280;63883;48.996;20.804;2023-04-16T12:37:36;96446.75;;;23.56;28.20
75290;BME280;63883;48.996;20.804;2023-04-16T12:40:03;96443.09;;;23.59;27.36
75290;BME280;63883;48.996;20.804;2023-04-16T12:42:32;96445.91;;;23.88;26.45
75290;BME280;63883;48.996;20.804;2023-04-16T12:45:02;96434.56;;;23.78;27.01
75290;BME280;63883;48.996;20.804;2023-04-16T12:47:29;96430.78;;;23.18;27.63
75290;BME280;63883;48.996;20.804;2023-04-16T12:49:58;96433.56;;;22.83;28.02
75290;BME280;63883;48.996;20.804;2023-04-16T12:52:24;96433.78;;;23.02;26.86
75290;BME280;63883;48.996;20.804;2023-04-16T12:54:50;96426.69;;;22.71;27.59
75290;BME280;63883;48.996;20.804;2023-04-16T12:57:16;96426.00;;;22.24;28.60
75290;BME280;63883;48.996;20.804;2023-04-16T12:59:41;96424.69;;;21.83;29.49
75290;BME280;63883;48.996;20.804;2023-04-16T13:02:07;96425.59;;;21.71;30.60
75290;BME280;63883;48.996;20.804;2023-04-16T13:04:33;96423.84;;;21.72;30.60
75290;BME280;63883;48.996;20.804;2023-04-16T13:06:59;96420.78;;;22.24;30.27